createdAt,value
2023-02-24T00:00:38.609Z,97146.03
2023-02-24T00:03:11.569Z,97139.16
2023-02-24T00:05:42.931Z,97154.81
2023-02-24T00:08:11.446Z,97132.91
2023-02-24T00:10:41.789Z,97133.81
2023-02-24T00:13:12.266Z,97129.69
2023-02-24T00:15:40.506Z,97142.19
2023-02-24T00:18:08.589Z,97129.38
2023-02-24T00:20:37.475Z,97126.91
2023-02-24T00:23:05.671Z,97121.69
2023-02-24T00:25:33.797Z,97126.03
2023-02-24T00:28:03.455Z,97134.84
2023-02-24T00:30:33.096Z,97093.56
2023-02-24T00:33:02.945Z,97109.81
2023-02-24T00:35:31.039Z,97116.66
2023-02-24T00:37:59.651Z,97109.78
2023-02-24T00:40:30.427Z,97105.34
2023-02-24T00:42:58.658Z,97098.59
2023-02-24T00:45:31.021Z,97090.16
2023-02-24T00:47:59.464Z,97096.19
2023-02-24T00:50:27.606Z,97099.63
2023-02-24T00:52:55.733Z,97091.69
2023-02-24T00:55:24.096Z,97089.97
2023-02-24T00:57:52.160Z,97067.75
2023-02-24T01:00:23.472Z,97077.09
2023-02-24T01:02:53.012Z,97084.06
2023-02-24T01:05:21.417Z,97053.28
2023-02-24T01:07:49.524Z,97079.75
2023-02-24T01:10:18.489Z,97079.88
2023-02-24T01:12:51.239Z,97077.38
2023-02-24T01:15:21.849Z,97064.56
2023-02-24T01:17:50.013Z,97063.47
2023-02-24T01:20:19.900Z,97069.59
2023-02-24T01:22:50.550Z,97059.09
2023-02-24T01:25:20.537Z,97051.63
2023-02-24T01:27:49.104Z,96996.00
2023-02-24T01:30:18.535Z,97062.19
2023-02-24T01:32:48.220Z,97053.63
2023-02-24T01:35:16.971Z,97031.34
2023-02-24T01:37:46.558Z,97025.25
2023-02-24T01:40:21.849Z,97034.75
2023-02-24T01:42:50.838Z,96997.00
2023-02-24T01:45:22.867Z,97004.69
2023-02-24T01:47:54.209Z,97040.72
2023-02-24T01:50:26.269Z,97033.66
2023-02-24T01:52:58.979Z,97034.53
2023-02-24T01:55:32.224Z,97032.69
2023-02-24T01:58:06.043Z,97006.84
2023-02-24T02:00:38.406Z,97029.19
2023-02-24T02:03:15.721Z,97036.97
2023-02-24T02:05:45.384Z,97025.75
2023-02-24T02:08:16.745Z,97002.75
2023-02-24T02:10:45.516Z,97023.34
2023-02-24T02:13:21.158Z,97028.53
2023-02-24T02:16:13.841Z,96989.94
2023-02-24T02:18:56.392Z,97008.78
2023-02-24T02:22:03.992Z,97037.13
2023-02-24T02:24:53.908Z,97006.03
2023-02-24T02:27:45.260Z,97038.69
2023-02-24T02:30:48.032Z,97041.38
2023-02-24T02:34:00.631Z,97008.88
2023-02-24T02:36:38.842Z,97015.66
2023-02-24T02:39:14.818Z,97030.25
2023-02-24T02:41:51.055Z,96976.16
2023-02-24T02:44:25.381Z,97024.91
2023-02-24T02:47:01.406Z,97009.78
2023-02-24T02:49:35.566Z,97021.78
2023-02-24T02:52:13.844Z,97017.34
2023-02-24T02:54:49.888Z,97031.09
2023-02-24T02:57:21.841Z,97027.81
2023-02-24T02:59:54.837Z,96928.50
2023-02-24T03:02:29.843Z,97009.94
2023-02-24T03:05:02.199Z,97020.09
2023-02-24T03:07:37.674Z,97011.38
2023-02-24T03:10:11.429Z,97021.78
2023-02-24T03:12:42.076Z,97020.81
2023-02-24T03:15:14.274Z,97012.16
2023-02-24T03:17:46.524Z,96842.53
2023-02-24T03:20:22.774Z,97016.28
2023-02-24T03:22:57.658Z,96997.47
2023-02-24T03:25:30.299Z,97012.00
2023-02-24T03:28:06.089Z,97010.28
2023-02-24T03:30:42.515Z,96832.97
2023-02-24T03:33:18.315Z,97010.28
2023-02-24T03:35:46.746Z,97003.41
2023-02-24T03:38:16.263Z,97004.28
2023-02-24T03:40:44.571Z,97002.50
2023-02-24T03:43:17.695Z,97049.28
2023-02-24T03:45:46.801Z,96978.47
2023-02-24T03:48:16.156Z,96989.53
2023-02-24T03:50:45.104Z,96993.59
2023-02-24T03:53:31.777Z,97003.00
2023-02-24T03:56:11.122Z,96959.44
2023-02-24T03:58:53.766Z,96995.53
2023-02-24T04:01:31.128Z,96993.16
2023-02-24T04:04:04.804Z,96995.00
2023-02-24T04:06:41.948Z,96996.75
2023-02-24T04:09:20.313Z,96991.56
2023-02-24T04:11:56.403Z,96999.34
2023-02-24T04:14:30.824Z,96980.31
2023-02-24T04:17:04.081Z,96948.72
2023-02-24T04:19:38.553Z,96989.97
2023-02-24T04:22:07.980Z,96960.56
2023-02-24T04:24:40.754Z,96955.34
2023-02-24T04:27:13.193Z,96974.28
2023-02-24T04:29:47.366Z,96975.97
2023-02-24T04:32:18.893Z,96973.41
2023-02-24T04:34:47.187Z,96973.38
2023-02-24T04:37:15.418Z,96970.94
2023-02-24T04:39:46.211Z,96978.00
2023-02-24T04:42:14.467Z,96973.63
2023-02-24T04:44:42.970Z,96887.00
2023-02-24T04:47:12.719Z,96968.19
2023-02-24T04:49:41.605Z,96954.41
2023-02-24T04:52:10.535Z,96937.25
2023-02-24T04:54:39.274Z,96957.72
2023-02-24T04:57:10.728Z,96950.16
2023-02-24T04:59:39.050Z,96945.84
2023-02-24T05:02:07.251Z,96933.13
2023-02-24T05:04:39.023Z,96834.28
2023-02-24T05:07:07.253Z,96950.34
2023-02-24T05:09:35.483Z,96947.78
2023-02-24T05:12:05.307Z,96946.03
2023-02-24T05:14:34.943Z,96944.19
2023-02-24T05:17:03.203Z,96934.84
2023-02-24T05:19:48.485Z,96938.31
2023-02-24T05:22:17.843Z,96938.34
2023-02-24T05:24:48.143Z,96913.41
2023-02-24T05:27:17.476Z,96937.44
2023-02-24T05:29:47.600Z,96924.38
2023-02-24T05:32:17.031Z,96922.66
2023-02-24T05:34:45.353Z,96925.22
2023-02-24T05:37:16.785Z,96913.19
2023-02-24T05:39:45.144Z,96891.75
2023-02-24T05:42:13.484Z,96895.31
2023-02-24T05:44:41.910Z,96894.53
2023-02-24T05:47:11.871Z,96919.31
2023-02-24T05:49:40.274Z,96921.06
2023-02-24T05:52:10.202Z,96898.59
2023-02-24T05:54:40.617Z,96882.47
2023-02-24T05:57:12.193Z,96912.63
2023-02-24T05:59:41.176Z,96862.09
2023-02-24T06:02:13.212Z,96906.75
2023-02-24T06:04:51.467Z,96908.50
2023-02-24T06:07:24.958Z,96911.09
2023-02-24T06:09:56.619Z,96919.72
2023-02-24T06:12:27.754Z,96909.38
2023-02-24T06:14:55.883Z,96912.91
2023-02-24T06:19:52.255Z,96918.06
2023-02-24T06:22:22.924Z,96917.22
2023-02-24T06:24:51.225Z,96919.75
2023-02-24T06:27:21.847Z,96918.88
2023-02-24T06:29:52.193Z,96819.59
2023-02-24T06:32:21.536Z,96912.63
2023-02-24T06:34:52.534Z,96919.44
2023-02-24T06:37:21.084Z,96872.09
2023-02-24T06:39:49.269Z,96899.50
2023-02-24T06:42:17.367Z,96914.69
2023-02-24T06:44:45.405Z,96912.13
2023-02-24T06:47:18.094Z,96912.13
2023-02-24T06:49:46.421Z,96890.66
2023-02-24T06:52:19.199Z,96915.31
2023-02-24T06:54:49.688Z,96891.25
2023-02-24T06:57:18.024Z,96919.66
2023-02-24T06:59:46.525Z,96921.47
2023-02-24T07:02:14.641Z,96916.19
2023-02-24T07:04:44.835Z,96910.81
2023-02-24T07:07:14.851Z,96909.03
2023-02-24T07:09:45.561Z,96903.66
2023-02-24T07:12:15.742Z,96882.00
2023-02-24T07:14:44.176Z,96885.47
2023-02-24T07:17:14.891Z,96899.06
2023-02-24T07:19:44.285Z,96893.81
2023-02-24T07:22:14.836Z,96877.53
2023-02-24T07:24:46.503Z,96881.00
2023-02-24T07:27:22.554Z,96901.78
2023-02-24T07:29:53.123Z,96884.59
2023-02-24T07:32:22.884Z,96902.56
2023-02-24T07:34:51.250Z,96902.44
2023-02-24T07:37:20.756Z,96902.38
2023-02-24T07:39:50.455Z,96889.28
2023-02-24T07:42:18.611Z,96895.06
2023-02-24T07:44:49.363Z,96807.78
2023-02-24T07:47:17.676Z,96896.91
2023-02-24T07:49:45.930Z,96845.09
2023-02-24T07:52:14.336Z,96776.91
2023-02-24T07:54:42.459Z,96874.59
2023-02-24T07:57:14.382Z,96867.97
2023-02-24T07:59:47.679Z,96869.13
2023-02-24T08:02:16.599Z,96852.34
2023-02-24T08:04:50.480Z,96855.09
2023-02-24T08:07:25.019Z,96850.25
2023-02-24T08:10:24.346Z,96837.03
2023-02-24T08:12:55.740Z,96854.91
2023-02-24T08:15:26.153Z,96852.50
2023-02-24T08:17:59.619Z,96838.91
2023-02-24T08:20:30.097Z,96817.84
2023-02-24T08:22:58.457Z,96832.84
2023-02-24T08:25:35.841Z,96760.88
2023-02-24T08:28:09.619Z,96838.38
2023-02-24T08:30:40.964Z,96748.22
2023-02-24T08:33:11.210Z,96810.94
2023-02-24T08:35:45.073Z,96754.28
2023-02-24T08:38:16.590Z,96820.94
2023-02-24T08:40:55.160Z,96814.94
2023-02-24T08:43:34.147Z,96796.66
2023-02-24T08:46:12.750Z,96771.88
2023-02-24T08:48:43.490Z,96700.81
2023-02-24T08:51:17.942Z,96789.56
2023-02-24T08:53:47.392Z,96797.44
2023-02-24T08:56:24.370Z,96767.19
2023-02-24T08:58:58.335Z,96797.94
2023-02-24T09:01:34.767Z,96805.03
2023-02-24T09:04:05.651Z,96790.75
2023-02-24T09:06:40.937Z,96784.34
2023-02-24T09:09:18.824Z,96783.28
2023-02-24T09:11:49.524Z,96776.31
2023-02-24T09:14:28.959Z,96774.13
2023-02-24T09:17:06.256Z,96776.19
2023-02-24T09:20:02.176Z,96781.56
2023-02-24T09:22:31.712Z,96765.31
2023-02-24T09:25:24.152Z,96773.13
2023-02-24T09:27:55.854Z,96773.25
2023-02-24T09:30:38.137Z,96763.81
2023-02-24T09:33:18.097Z,96754.44
2023-02-24T09:35:48.812Z,96749.53
2023-02-24T09:38:20.223Z,96753.59
2023-02-24T09:40:50.848Z,96762.72
2023-02-24T09:43:22.093Z,96756.53
2023-02-24T09:46:14.718Z,96750.84
2023-02-24T09:48:54.492Z,96747.78
2023-02-24T09:51:29.297Z,96753.59
2023-02-24T09:54:02.065Z,96588.19
2023-02-24T09:56:42.572Z,96745.69
2023-02-24T09:59:26.380Z,96742.06
2023-02-24T10:02:04.342Z,96738.19
2023-02-24T10:05:07.457Z,96724.13
2023-02-24T10:07:44.102Z,96682.22
2023-02-24T10:10:21.091Z,96724.38
2023-02-24T10:12:53.563Z,96715.09
2023-02-24T10:15:56.949Z,96725.44
2023-02-24T10:18:31.889Z,96668.22
2023-02-24T10:21:07.723Z,96672.25
2023-02-24T10:23:56.812Z,96714.16
2023-02-24T10:26:34.954Z,96686.72
2023-02-24T10:29:22.712Z,96574.00
2023-02-24T10:31:57.881Z,96705.69
2023-02-24T10:34:32.005Z,96699.16
2023-02-24T10:37:07.750Z,96694.13
2023-02-24T10:39:35.944Z,96697.44
2023-02-24T10:42:22.758Z,96681.38
2023-02-24T10:45:02.317Z,96671.03
2023-02-24T10:47:32.754Z,96600.81
2023-02-24T10:50:05.373Z,96676.88
2023-02-24T10:52:51.026Z,96662.59
2023-02-24T10:55:39.420Z,96609.59
2023-02-24T10:58:16.090Z,96617.31
2023-02-24T11:01:12.701Z,96646.22
2023-02-24T11:03:48.219Z,96594.47
2023-02-24T11:06:42.516Z,96630.28
2023-02-24T11:09:32.461Z,96538.56
2023-02-24T11:12:24.250Z,96563.66
2023-02-24T11:15:13.432Z,96624.09
2023-02-24T11:17:51.022Z,96602.28
2023-02-24T11:20:47.726Z,96613.56
2023-02-24T11:23:21.696Z,96599.53
2023-02-24T11:25:53.585Z,96606.44
2023-02-24T11:28:49.668Z,96598.38
2023-02-24T11:31:36.360Z,96569.47
2023-02-24T11:34:10.413Z,96576.13
2023-02-24T11:36:47.712Z,96568.88
2023-02-24T11:39:33.630Z,96563.97
2023-02-24T11:42:06.055Z,96542.56
2023-02-24T11:44:42.583Z,96532.50
2023-02-24T11:47:17.939Z,96543.41
2023-02-24T11:49:50.723Z,96495.13
2023-02-24T11:52:25.097Z,96529.25
2023-02-24T11:54:57.957Z,96535.75
2023-02-24T11:57:35.485Z,96528.53
2023-02-24T12:00:13.505Z,96522.47
2023-02-24T12:02:49.070Z,96493.94
2023-02-24T12:05:21.180Z,96518.50
2023-02-24T12:07:52.642Z,96504.63
2023-02-24T12:10:26.244Z,96508.47
2023-02-24T12:13:02.202Z,96505.19
2023-02-24T12:15:34.237Z,96416.16
2023-02-24T12:18:13.709Z,96492.41
2023-02-24T12:20:46.910Z,96447.34
2023-02-24T12:23:19.381Z,96481.59
2023-02-24T12:26:06.981Z,96479.25
2023-02-24T12:28:54.872Z,96465.59
2023-02-24T12:31:32.268Z,96463.91
2023-02-24T12:34:09.869Z,96456.94
2023-02-24T12:36:55.333Z,96455.81
2023-02-24T12:39:31.924Z,96430.69
2023-02-24T12:42:13.657Z,96443.38
2023-02-24T12:44:49.889Z,96439.50
2023-02-24T12:47:26.584Z,96432.91
2023-02-24T12:50:25.441Z,96423.09
2023-02-24T12:53:07.596Z,96429.88
2023-02-24T12:55:44.861Z,96414.81
2023-02-24T12:58:19.201Z,96399.72
2023-02-24T13:00:58.923Z,96389.84
2023-02-24T13:03:41.288Z,96395.47
2023-02-24T13:06:18.109Z,96395.09
2023-02-24T13:08:56.520Z,96379.06
2023-02-24T13:11:37.588Z,96370.56
2023-02-24T13:14:16.247Z,96371.78
2023-02-24T13:16:44.358Z,96376.41
2023-02-24T13:19:21.954Z,96326.78
2023-02-24T13:21:57.808Z,96369.25
2023-02-24T13:24:27.673Z,96365.06
2023-02-24T13:27:07.013Z,96354.47
2023-02-24T13:29:47.154Z,96348.72
2023-02-24T13:32:31.766Z,96343.78
2023-02-24T13:35:02.571Z,96302.13
2023-02-24T13:37:34.500Z,96321.44
2023-02-24T13:40:13.752Z,96328.00
2023-02-24T13:42:42.244Z,96328.44
2023-02-24T13:45:21.853Z,96326.75
2023-02-24T13:48:11.492Z,96327.41
2023-02-24T13:50:53.364Z,96326.56
2023-02-24T13:53:43.117Z,96318.72
2023-02-24T13:56:36.893Z,96313.91
2023-02-24T13:59:18.331Z,96223.31
2023-02-24T14:01:51.334Z,96307.97
2023-02-24T14:04:22.624Z,96280.63
2023-02-24T14:06:54.392Z,96299.88
2023-02-24T14:09:26.970Z,96254.69
2023-02-24T14:12:01.055Z,96289.53
2023-02-24T14:14:30.675Z,96297.88
2023-02-24T14:17:00.356Z,96270.06
2023-02-24T14:19:28.579Z,96267.13
2023-02-24T14:21:58.538Z,96255.03
2023-02-24T14:24:29.131Z,96247.19
2023-02-24T14:26:59.078Z,96220.00
2023-02-24T14:29:32.182Z,96240.97
2023-02-24T14:32:02.651Z,96173.25
2023-02-24T14:34:34.043Z,96223.84
2023-02-24T14:37:05.313Z,96177.84
2023-02-24T14:39:34.458Z,96186.88
2023-02-24T14:42:13.364Z,96193.69
2023-02-24T14:44:46.145Z,96230.25
2023-02-24T14:47:18.471Z,96198.63
2023-02-24T14:49:55.795Z,96191.69
2023-02-24T14:52:32.945Z,96206.34
2023-02-24T14:55:05.302Z,96190.91
2023-02-24T14:57:37.299Z,96189.34
2023-02-24T15:00:13.149Z,96183.88
2023-02-24T15:02:47.738Z,96193.00
2023-02-24T15:05:16.989Z,96173.38
2023-02-24T15:07:46.357Z,96204.63
2023-02-24T15:10:23.561Z,96192.41
2023-02-24T15:12:55.642Z,96189.94
2023-02-24T15:15:27.279Z,96191.84
2023-02-24T15:18:00.374Z,96139.66
2023-02-24T15:20:31.299Z,96083.47
2023-02-24T15:22:59.981Z,96170.69
2023-02-24T15:25:42.242Z,96188.16
2023-02-24T15:28:24.506Z,96200.06
2023-02-24T15:31:01.688Z,96195.88
2023-02-24T15:33:36.277Z,96158.69
2023-02-24T15:36:10.172Z,96195.53
2023-02-24T15:38:41.372Z,96215.03
2023-02-24T15:41:11.354Z,96238.06
2023-02-24T15:43:46.441Z,96196.50
2023-02-24T15:46:24.239Z,96201.53
2023-02-24T15:48:55.619Z,96185.69
2023-02-24T15:51:32.295Z,96209.50
2023-02-24T15:54:02.357Z,96160.63
2023-02-24T15:56:33.551Z,96194.03
2023-02-24T15:59:02.696Z,96188.91
2023-02-24T16:01:32.775Z,96186.03
2023-02-24T16:04:04.774Z,96180.50
2023-02-24T16:06:34.129Z,96158.38
2023-02-24T16:09:05.356Z,96183.34
2023-02-24T16:11:38.741Z,96172.84
2023-02-24T16:14:07.102Z,96155.78
2023-02-24T16:16:35.286Z,96171.84
2023-02-24T16:19:04.739Z,96173.66
2023-02-24T16:21:32.930Z,96110.19
2023-02-24T16:24:01.108Z,96162.03
2023-02-24T16:26:29.660Z,96165.94
2023-02-24T16:28:59.446Z,96172.81
2023-02-24T16:31:28.599Z,96172.25
2023-02-24T16:33:58.646Z,96173.75
2023-02-24T16:36:30.649Z,95690.66
2023-02-24T16:38:59.331Z,95930.25
2023-02-24T16:41:27.912Z,96151.50
2023-02-24T16:43:56.425Z,96145.19
2023-02-24T16:46:27.488Z,96043.69
2023-02-24T16:48:56.075Z,96070.56
2023-02-24T16:51:24.695Z,96146.66
2023-02-24T16:53:54.643Z,96154.78
2023-02-24T16:56:23.601Z,96136.09
2023-02-24T16:58:52.108Z,96144.56
2023-02-24T17:01:22.620Z,96034.25
2023-02-24T17:03:54.078Z,96143.69
2023-02-24T17:06:24.012Z,96138.69
2023-02-24T17:08:54.384Z,96095.19
2023-02-24T17:11:25.189Z,96037.59
2023-02-24T17:13:53.607Z,96140.84
2023-02-24T17:16:22.283Z,96144.00
2023-02-24T17:18:50.708Z,96121.91
2023-02-24T17:21:19.296Z,96097.66
2023-02-24T17:23:47.530Z,96125.66
2023-02-24T17:26:17.567Z,96101.75
2023-02-24T17:28:45.909Z,96115.91
2023-02-24T17:31:14.284Z,96104.00
2023-02-24T17:33:44.862Z,96146.31
2023-02-24T17:36:12.985Z,96150.31
2023-02-24T17:38:41.221Z,96151.88
2023-02-24T17:41:09.452Z,96118.06
2023-02-24T17:43:39.174Z,96145.88
2023-02-24T17:46:07.704Z,96150.28
2023-02-24T17:48:36.425Z,96091.94
2023-02-24T17:51:04.865Z,96139.47
2023-02-24T17:53:33.150Z,96013.13
2023-02-24T17:56:05.304Z,96043.56
2023-02-24T17:58:34.624Z,96124.75
2023-02-24T18:01:05.819Z,96143.75
2023-02-24T18:03:35.166Z,96129.13
2023-02-24T18:06:06.586Z,96132.69
2023-02-24T18:08:35.950Z,96125.84
2023-02-24T18:11:05.390Z,96120.09
2023-02-24T18:13:33.939Z,96122.44
2023-02-24T18:16:03.534Z,96108.50
2023-02-24T18:18:31.862Z,96098.94
2023-02-24T18:21:03.366Z,96123.28
2023-02-24T18:23:31.737Z,96105.78
2023-02-24T18:26:03.227Z,96101.97
2023-02-24T18:28:32.080Z,96113.91
2023-02-24T18:31:03.435Z,96119.81
2023-02-24T18:33:33.266Z,96115.28
2023-02-24T18:36:02.367Z,96109.34
2023-02-24T18:38:30.723Z,96105.03
2023-02-24T18:41:00.256Z,96101.22
2023-02-24T18:43:28.539Z,96091.78
2023-02-24T18:45:58.141Z,96080.69
2023-02-24T18:48:26.535Z,96092.09
2023-02-24T18:50:57.014Z,96094.56
2023-02-24T18:53:27.110Z,96072.91
2023-02-24T18:56:01.188Z,96092.34
2023-02-24T18:58:29.420Z,96059.13
2023-02-24T19:00:57.870Z,96084.13
2023-02-24T19:03:26.636Z,96043.91
2023-02-24T19:05:56.216Z,96037.41
2023-02-24T19:08:24.736Z,96068.59
2023-02-24T19:10:52.816Z,96069.63
2023-02-24T19:13:21.012Z,96067.50
2023-02-24T19:15:49.246Z,96065.63
2023-02-24T19:18:17.813Z,96073.13
2023-02-24T19:20:46.321Z,96034.59
2023-02-24T19:23:15.945Z,96069.25
2023-02-24T19:25:44.170Z,96065.38
2023-02-24T19:28:12.428Z,95978.13
2023-02-24T19:30:41.218Z,96057.75
2023-02-24T19:33:09.935Z,96042.78
2023-02-24T19:35:41.341Z,96046.16
2023-02-24T19:38:09.994Z,96054.19
2023-02-24T19:40:39.681Z,96048.25
2023-02-24T19:43:08.037Z,96057.31
2023-02-24T19:45:36.757Z,96025.94
2023-02-24T19:48:05.218Z,96044.78
2023-02-24T19:50:33.546Z,96049.72
2023-02-24T19:53:01.804Z,96026.06
2023-02-24T19:55:30.084Z,96041.22
2023-02-24T19:57:59.880Z,96044.69
2023-02-24T20:00:28.111Z,96027.66
2023-02-24T20:02:56.285Z,96047.88
2023-02-24T20:05:24.989Z,96024.94
2023-02-24T20:07:53.312Z,96026.34
2023-02-24T20:10:21.723Z,96059.75
2023-02-24T20:12:50.175Z,96040.59
2023-02-24T20:15:19.967Z,96007.75
2023-02-24T20:17:49.817Z,95987.28
2023-02-24T20:20:18.295Z,96027.09
2023-02-24T20:22:46.450Z,96054.84
2023-02-24T20:25:15.509Z,96027.69
2023-02-24T20:27:43.852Z,96043.94
2023-02-24T20:30:14.079Z,95985.78
2023-02-24T20:32:43.933Z,96042.00
2023-02-24T20:35:12.330Z,96044.69
2023-02-24T20:37:40.771Z,96003.72
2023-02-24T20:40:10.695Z,96026.31
2023-02-24T20:42:39.567Z,95983.31
2023-02-24T20:45:09.159Z,95995.91
2023-02-24T20:47:37.351Z,95994.84
2023-02-24T20:50:07.448Z,95949.00
2023-02-24T20:52:37.734Z,96007.91
2023-02-24T20:55:06.456Z,96007.50
2023-02-24T20:57:34.715Z,96002.47
2023-02-24T21:00:08.160Z,95981.38
2023-02-24T21:02:36.820Z,95991.38
2023-02-24T21:05:06.979Z,95992.31
2023-02-24T21:07:37.073Z,95991.25
2023-02-24T21:10:05.971Z,95899.84
2023-02-24T21:12:34.158Z,95552.13
2023-02-24T21:15:02.332Z,95984.00
2023-02-24T21:17:30.793Z,95974.59
2023-02-24T21:19:58.927Z,95971.72
2023-02-24T21:22:31.351Z,95978.47
2023-02-24T21:24:59.859Z,95975.09
2023-02-24T21:27:28.035Z,95968.97
2023-02-24T21:29:56.207Z,95947.56
2023-02-24T21:32:24.744Z,95965.06
2023-02-24T21:34:53.582Z,95971.75
2023-02-24T21:37:21.932Z,95956.94
2023-02-24T21:39:51.524Z,95962.19
2023-02-24T21:42:19.725Z,95937.38
2023-02-24T21:44:47.959Z,95952.34
2023-02-24T21:47:16.158Z,95933.66
2023-02-24T21:49:46.355Z,95951.78
2023-02-24T21:52:14.840Z,95948.94
2023-02-24T21:54:43.342Z,95935.88
2023-02-24T21:57:12.975Z,95915.97
2023-02-24T21:59:41.139Z,95903.88
2023-02-24T22:02:13.165Z,95938.03
2023-02-24T22:04:41.326Z,95948.63
2023-02-24T22:07:09.375Z,95947.47
2023-02-24T22:09:37.624Z,95941.72
2023-02-24T22:12:06.770Z,95950.72
2023-02-24T22:14:36.292Z,95915.34
2023-02-24T22:17:04.505Z,95931.47
2023-02-24T22:19:32.558Z,95927.59
2023-02-24T22:22:00.838Z,95919.59
2023-02-24T22:24:28.882Z,95905.09
2023-02-24T22:26:56.965Z,95907.91
2023-02-24T22:29:25.067Z,95918.28
2023-02-24T22:31:54.764Z,95907.69
2023-02-24T22:34:22.966Z,95889.16
2023-02-24T22:36:51.150Z,95763.09
2023-02-24T22:39:19.320Z,95906.31
2023-02-24T22:41:47.934Z,95903.25
2023-02-24T22:44:19.330Z,95888.22
2023-02-24T22:46:47.603Z,95876.25
2023-02-24T22:49:17.385Z,95897.56
2023-02-24T22:51:45.710Z,95899.34
2023-02-24T22:54:13.843Z,95898.00
2023-02-24T22:56:42.057Z,95889.97
2023-02-24T22:59:11.325Z,95889.34
2023-02-24T23:01:40.242Z,95784.13
2023-02-24T23:04:13.625Z,95874.63
2023-02-24T23:06:44.561Z,95852.91
2023-02-24T23:09:13.380Z,95879.19
2023-02-24T23:11:42.848Z,95971.22
2023-02-24T23:14:14.598Z,95836.81
2023-02-24T23:16:44.652Z,95886.53
2023-02-24T23:19:17.600Z,95861.56
2023-02-24T23:21:49.804Z,95857.06
2023-02-24T23:24:19.421Z,95861.69
2023-02-24T23:26:49.383Z,95861.06
2023-02-24T23:29:19.201Z,95737.75
2023-02-24T23:31:47.759Z,95836.63
2023-02-24T23:34:16.617Z,95841.41
2023-02-24T23:36:47.747Z,95843.25
2023-02-24T23:39:20.512Z,95745.28
2023-02-24T23:41:49.513Z,95838.44
2023-02-24T23:44:17.624Z,95802.53
2023-02-24T23:46:46.694Z,95823.63
2023-02-24T23:49:14.860Z,95805.94
2023-02-24T23:51:48.384Z,95829.88
2023-02-24T23:54:19.050Z,95812.19
2023-02-24T23:56:47.462Z,95786.34
2023-02-24T23:59:16.054Z,95799.66
